sensor_id;sensor_type;location;lat;lon;timestamp;P1;durP1;ratioP1;P2;durP2;ratioP2
30048;SDS011;16879;50.852;15.602;2023-02-16T00:01:48;249.48;;;94.93;;
30048;SDS011;16879;50.852;15.602;2023-02-16T00:04:19;237.38;;;95.20;;
30048;SDS011;16879;50.852;15.602;2023-02-16T00:06:46;199.20;;;86.60;;
30048;SDS011;16879;50.852;15.602;2023-02-16T00:09:12;230.57;;;98.68;;
30048;SDS011;16879;50.852;15.602;2023-02-16T00:11:39;240.52;;;105.88;;
30048;SDS011;16879;50.852;15.602;2023-02-16T00:14:24;205.82;;;87.30;;
30048;SDS011;16879;50.852;15.602;2023-02-16T00:16:50;201.85;;;84.47;;
30048;SDS011;16879;50.852;15.602;2023-02-16T00:21:43;231.30;;;97.07;;
30048;SDS011;16879;50.852;15.602;2023-02-16T00:24:09;219.38;;;92.63;;
30048;SDS011;16879;50.852;15.602;2023-02-16T00:26:35;214.60;;;92.50;;
30048;SDS011;16879;50.852;15.602;2023-02-16T00:29:01;222.60;;;94.07;;
30048;SDS011;16879;50.852;15.602;2023-02-16T00:31:28;188.57;;;84.45;;
30048;SDS011;16879;50.852;15.602;2023-02-16T00:33:58;195.98;;;86.35;;
30048;SDS011;16879;50.852;15.602;2023-02-16T00:36:25;172.82;;;78.00;;
30048;SDS011;16879;50.852;15.602;2023-02-16T00:38:51;172.02;;;77.45;;
30048;SDS011;16879;50.852;15.602;2023-02-16T00:41:18;168.40;;;76.07;;
30048;SDS011;16879;50.852;15.602;2023-02-16T00:44:18;178.90;;;77.75;;
30048;SDS011;16879;50.852;15.602;2023-02-16T00:46:45;183.98;;;75.22;;
30048;SDS011;16879;50.852;15.602;2023-02-16T00:49:13;166.35;;;82.05;;
30048;SDS011;16879;50.852;15.602;2023-02-16T00:51:39;181.30;;;75.30;;
30048;SDS011;16879;50.852;15.602;2023-02-16T00:54:06;173.50;;;76.50;;
30048;SDS011;16879;50.852;15.602;2023-02-16T00:56:32;183.73;;;81.10;;
30048;SDS011;16879;50.852;15.602;2023-02-16T00:58:58;154.20;;;67.13;;
30048;SDS011;16879;50.852;15.602;2023-02-16T01:01:24;160.50;;;73.10;;
30048;SDS011;16879;50.852;15.602;2023-02-16T01:03:53;186.98;;;84.35;;
30048;SDS011;16879;50.852;15.602;2023-02-16T01:06:19;162.55;;;70.85;;
30048;SDS011;16879;50.852;15.602;2023-02-16T01:09:12;153.57;;;68.82;;
30048;SDS011;16879;50.852;15.602;2023-02-16T01:11:57;156.68;;;64.90;;
30048;SDS011;16879;50.852;15.602;2023-02-16T01:14:23;156.98;;;68.18;;
30048;SDS011;16879;50.852;15.602;2023-02-16T01:16:50;146.25;;;67.07;;
30048;SDS011;16879;50.852;15.602;2023-02-16T01:19:16;142.82;;;66.55;;
30048;SDS011;16879;50.852;15.602;2023-02-16T01:21:42;156.45;;;68.60;;
30048;SDS011;16879;50.852;15.602;2023-02-16T01:24:08;129.55;;;60.90;;
30048;SDS011;16879;50.852;15.602;2023-02-16T01:26:38;172.35;;;73.25;;
30048;SDS011;16879;50.852;15.602;2023-02-16T01:29:05;166.20;;;77.28;;
30048;SDS011;16879;50.852;15.602;2023-02-16T01:31:31;154.23;;;69.00;;
30048;SDS011;16879;50.852;15.602;2023-02-16T01:33:58;154.15;;;68.53;;
30048;SDS011;16879;50.852;15.602;2023-02-16T01:36:34;199.88;;;85.15;;
30048;SDS011;16879;50.852;15.602;2023-02-16T01:39:01;186.07;;;80.72;;
30048;SDS011;16879;50.852;15.602;2023-02-16T01:44:14;170.60;;;73.50;;
30048;SDS011;16879;50.852;15.602;2023-02-16T01:46:43;156.30;;;66.20;;
30048;SDS011;16879;50.852;15.602;2023-02-16T01:49:13;169.43;;;70.57;;
30048;SDS011;16879;50.852;15.602;2023-02-16T01:51:54;153.52;;;69.05;;
30048;SDS011;16879;50.852;15.602;2023-02-16T01:57:03;165.93;;;74.55;;
30048;SDS011;16879;50.852;15.602;2023-02-16T01:59:40;143.43;;;66.60;;
30048;SDS011;16879;50.852;15.602;2023-02-16T02:02:19;155.27;;;69.78;;
30048;SDS011;16879;50.852;15.602;2023-02-16T02:04:54;168.90;;;73.63;;
30048;SDS011;16879;50.852;15.602;2023-02-16T02:10:16;133.98;;;62.78;;
30048;SDS011;16879;50.852;15.602;2023-02-16T02:12:58;155.48;;;70.28;;
30048;SDS011;16879;50.852;15.602;2023-02-16T02:15:28;154.40;;;69.20;;
30048;SDS011;16879;50.852;15.602;2023-02-16T02:17:55;167.80;;;68.68;;
30048;SDS011;16879;50.852;15.602;2023-02-16T02:20:30;155.30;;;69.43;;
30048;SDS011;16879;50.852;15.602;2023-02-16T02:31:44;187.90;;;81.70;;
30048;SDS011;16879;50.852;15.602;2023-02-16T02:37:11;175.20;;;71.85;;
30048;SDS011;16879;50.852;15.602;2023-02-16T02:45:58;153.20;;;63.78;;
30048;SDS011;16879;50.852;15.602;2023-02-16T02:48:32;154.52;;;69.80;;
30048;SDS011;16879;50.852;15.602;2023-02-16T02:53:49;144.25;;;67.38;;
30048;SDS011;16879;50.852;15.602;2023-02-16T02:56:35;159.10;;;70.18;;
30048;SDS011;16879;50.852;15.602;2023-02-16T02:59:21;153.40;;;68.40;;
30048;SDS011;16879;50.852;15.602;2023-02-16T03:02:06;158.07;;;74.25;;
30048;SDS011;16879;50.852;15.602;2023-02-16T03:04:32;158.20;;;70.85;;
30048;SDS011;16879;50.852;15.602;2023-02-16T03:06:59;148.27;;;68.55;;
30048;SDS011;16879;50.852;15.602;2023-02-16T03:09:26;143.98;;;67.35;;
30048;SDS011;16879;50.852;15.602;2023-02-16T03:11:52;145.77;;;66.78;;
30048;SDS011;16879;50.852;15.602;2023-02-16T03:14:46;156.02;;;68.60;;
30048;SDS011;16879;50.852;15.602;2023-02-16T03:17:24;143.68;;;64.28;;
30048;SDS011;16879;50.852;15.602;2023-02-16T03:20:11;160.00;;;71.63;;
30048;SDS011;16879;50.852;15.602;2023-02-16T03:22:57;153.18;;;66.57;;
30048;SDS011;16879;50.852;15.602;2023-02-16T03:25:42;154.77;;;68.57;;
30048;SDS011;16879;50.852;15.602;2023-02-16T03:28:27;152.80;;;66.82;;
30048;SDS011;16879;50.852;15.602;2023-02-16T03:31:15;147.40;;;67.05;;
30048;SDS011;16879;50.852;15.602;2023-02-16T03:33:42;156.30;;;68.57;;
30048;SDS011;16879;50.852;15.602;2023-02-16T03:36:08;156.75;;;71.82;;
30048;SDS011;16879;50.852;15.602;2023-02-16T03:38:35;152.75;;;69.85;;
30048;SDS011;16879;50.852;15.602;2023-02-16T03:41:03;162.98;;;70.50;;
30048;SDS011;16879;50.852;15.602;2023-02-16T03:43:30;158.40;;;73.50;;
30048;SDS011;16879;50.852;15.602;2023-02-16T03:45:56;165.48;;;76.07;;
30048;SDS011;16879;50.852;15.602;2023-02-16T03:48:22;146.18;;;67.10;;
30048;SDS011;16879;50.852;15.602;2023-02-16T03:50:48;138.60;;;64.30;;
30048;SDS011;16879;50.852;15.602;2023-02-16T03:53:14;172.02;;;80.57;;
30048;SDS011;16879;50.852;15.602;2023-02-16T03:55:43;175.10;;;79.60;;
30048;SDS011;16879;50.852;15.602;2023-02-16T03:58:10;180.57;;;83.10;;
30048;SDS011;16879;50.852;15.602;2023-02-16T04:00:37;185.18;;;82.97;;
30048;SDS011;16879;50.852;15.602;2023-02-16T04:03:03;160.95;;;73.88;;
30048;SDS011;16879;50.852;15.602;2023-02-16T04:05:30;154.20;;;67.63;;
30048;SDS011;16879;50.852;15.602;2023-02-16T04:07:56;188.18;;;85.55;;
30048;SDS011;16879;50.852;15.602;2023-02-16T04:10:22;155.18;;;74.55;;
30048;SDS011;16879;50.852;15.602;2023-02-16T04:12:49;164.65;;;77.53;;
30048;SDS011;16879;50.852;15.602;2023-02-16T04:15:19;165.07;;;75.80;;
30048;SDS011;16879;50.852;15.602;2023-02-16T04:17:45;167.57;;;78.95;;
30048;SDS011;16879;50.852;15.602;2023-02-16T04:20:13;155.43;;;74.65;;
30048;SDS011;16879;50.852;15.602;2023-02-16T04:22:39;174.82;;;79.03;;
30048;SDS011;16879;50.852;15.602;2023-02-16T04:25:06;159.45;;;71.75;;
30048;SDS011;16879;50.852;15.602;2023-02-16T04:27:32;161.80;;;73.35;;
30048;SDS011;16879;50.852;15.602;2023-02-16T04:29:58;140.65;;;65.03;;
30048;SDS011;16879;50.852;15.602;2023-02-16T04:32:25;155.75;;;71.03;;
30048;SDS011;16879;50.852;15.602;2023-02-16T04:34:51;139.02;;;68.05;;
30048;SDS011;16879;50.852;15.602;2023-02-16T04:37:17;170.57;;;75.20;;
30048;SDS011;16879;50.852;15.602;2023-02-16T04:39:43;145.95;;;67.53;;
30048;SDS011;16879;50.852;15.602;2023-02-16T04:42:09;156.65;;;69.82;;
30048;SDS011;16879;50.852;15.602;2023-02-16T04:44:36;154.40;;;66.82;;
30048;SDS011;16879;50.852;15.602;2023-02-16T04:47:02;142.73;;;65.82;;
30048;SDS011;16879;50.852;15.602;2023-02-16T04:49:28;165.68;;;74.97;;
30048;SDS011;16879;50.852;15.602;2023-02-16T04:51:54;146.18;;;68.18;;
30048;SDS011;16879;50.852;15.602;2023-02-16T04:54:21;131.50;;;64.20;;
30048;SDS011;16879;50.852;15.602;2023-02-16T04:56:47;158.43;;;71.47;;
30048;SDS011;16879;50.852;15.602;2023-02-16T04:59:13;163.23;;;72.88;;
30048;SDS011;16879;50.852;15.602;2023-02-16T05:01:40;147.77;;;67.32;;
30048;SDS011;16879;50.852;15.602;2023-02-16T05:04:07;171.50;;;74.70;;
30048;SDS011;16879;50.852;15.602;2023-02-16T05:06:34;146.32;;;67.60;;
30048;SDS011;16879;50.852;15.602;2023-02-16T05:09:01;148.95;;;63.70;;
30048;SDS011;16879;50.852;15.602;2023-02-16T05:11:27;148.38;;;66.75;;
30048;SDS011;16879;50.852;15.602;2023-02-16T05:14:20;145.30;;;67.15;;
30048;SDS011;16879;50.852;15.602;2023-02-16T05:17:05;129.13;;;62.72;;
30048;SDS011;16879;50.852;15.602;2023-02-16T05:19:31;166.00;;;71.45;;
30048;SDS011;16879;50.852;15.602;2023-02-16T05:21:57;132.55;;;61.05;;
30048;SDS011;16879;50.852;15.602;2023-02-16T05:24:23;168.23;;;73.20;;
30048;SDS011;16879;50.852;15.602;2023-02-16T05:26:49;143.88;;;64.22;;
30048;SDS011;16879;50.852;15.602;2023-02-16T05:29:16;167.27;;;68.78;;
30048;SDS011;16879;50.852;15.602;2023-02-16T05:31:42;148.70;;;61.90;;
30048;SDS011;16879;50.852;15.602;2023-02-16T05:34:08;139.45;;;60.45;;
30048;SDS011;16879;50.852;15.602;2023-02-16T05:36:34;153.65;;;68.57;;
30048;SDS011;16879;50.852;15.602;2023-02-16T05:39:01;126.25;;;62.20;;
30048;SDS011;16879;50.852;15.602;2023-02-16T05:41:27;142.23;;;64.05;;
30048;SDS011;16879;50.852;15.602;2023-02-16T05:43:57;180.02;;;74.20;;
30048;SDS011;16879;50.852;15.602;2023-02-16T05:46:23;164.57;;;74.05;;
30048;SDS011;16879;50.852;15.602;2023-02-16T05:48:50;151.45;;;65.97;;
30048;SDS011;16879;50.852;15.602;2023-02-16T05:51:17;148.40;;;65.35;;
30048;SDS011;16879;50.852;15.602;2023-02-16T05:53:43;171.85;;;75.88;;
30048;SDS011;16879;50.852;15.602;2023-02-16T05:56:10;178.25;;;74.55;;
30048;SDS011;16879;50.852;15.602;2023-02-16T05:58:36;205.07;;;81.90;;
30048;SDS011;16879;50.852;15.602;2023-02-16T06:01:02;159.23;;;68.78;;
30048;SDS011;16879;50.852;15.602;2023-02-16T06:03:28;179.60;;;77.57;;
30048;SDS011;16879;50.852;15.602;2023-02-16T06:05:55;166.50;;;71.32;;
30048;SDS011;16879;50.852;15.602;2023-02-16T06:08:22;159.93;;;70.03;;
30048;SDS011;16879;50.852;15.602;2023-02-16T06:10:49;189.60;;;83.45;;
30048;SDS011;16879;50.852;15.602;2023-02-16T06:13:16;210.18;;;90.18;;
30048;SDS011;16879;50.852;15.602;2023-02-16T06:15:42;191.18;;;81.35;;
30048;SDS011;16879;50.852;15.602;2023-02-16T06:18:09;201.90;;;80.65;;
30048;SDS011;16879;50.852;15.602;2023-02-16T06:20:39;206.30;;;89.95;;
30048;SDS011;16879;50.852;15.602;2023-02-16T06:23:06;223.07;;;91.63;;
30048;SDS011;16879;50.852;15.602;2023-02-16T06:25:32;224.18;;;90.13;;
30048;SDS011;16879;50.852;15.602;2023-02-16T06:27:58;239.02;;;103.80;;
30048;SDS011;16879;50.852;15.602;2023-02-16T06:30:25;231.32;;;90.68;;
30048;SDS011;16879;50.852;15.602;2023-02-16T06:32:51;345.15;;;117.90;;
30048;SDS011;16879;50.852;15.602;2023-02-16T06:35:17;300.42;;;111.85;;
30048;SDS011;16879;50.852;15.602;2023-02-16T06:37:43;253.82;;;104.35;;
30048;SDS011;16879;50.852;15.602;2023-02-16T06:40:10;294.15;;;116.13;;
30048;SDS011;16879;50.852;15.602;2023-02-16T06:42:40;245.57;;;97.47;;
30048;SDS011;16879;50.852;15.602;2023-02-16T06:45:06;252.45;;;102.70;;
30048;SDS011;16879;50.852;15.602;2023-02-16T06:47:33;204.02;;;90.22;;
30048;SDS011;16879;50.852;15.602;2023-02-16T06:49:59;172.02;;;78.85;;
30048;SDS011;16879;50.852;15.602;2023-02-16T06:52:26;199.20;;;85.63;;
30048;SDS011;16879;50.852;15.602;2023-02-16T06:54:52;199.45;;;86.50;;
30048;SDS011;16879;50.852;15.602;2023-02-16T06:57:18;191.32;;;82.57;;
30048;SDS011;16879;50.852;15.602;2023-02-16T06:59:44;223.93;;;98.65;;
30048;SDS011;16879;50.852;15.602;2023-02-16T07:02:09;192.48;;;84.13;;
30048;SDS011;16879;50.852;15.602;2023-02-16T07:04:36;178.35;;;83.80;;
30048;SDS011;16879;50.852;15.602;2023-02-16T07:07:02;181.90;;;81.60;;
30048;SDS011;16879;50.852;15.602;2023-02-16T07:09:28;196.63;;;82.03;;
30048;SDS011;16879;50.852;15.602;2023-02-16T07:11:54;226.55;;;89.57;;
30048;SDS011;16879;50.852;15.602;2023-02-16T07:14:20;214.13;;;86.40;;
30048;SDS011;16879;50.852;15.602;2023-02-16T07:16:46;207.93;;;83.43;;
30048;SDS011;16879;50.852;15.602;2023-02-16T07:19:13;198.27;;;81.60;;
30048;SDS011;16879;50.852;15.602;2023-02-16T07:21:39;221.82;;;89.72;;
30048;SDS011;16879;50.852;15.602;2023-02-16T07:24:08;184.75;;;80.75;;
30048;SDS011;16879;50.852;15.602;2023-02-16T07:26:42;188.38;;;77.53;;
30048;SDS011;16879;50.852;15.602;2023-02-16T07:29:09;180.18;;;75.90;;
30048;SDS011;16879;50.852;15.602;2023-02-16T07:31:35;224.50;;;99.32;;
30048;SDS011;16879;50.852;15.602;2023-02-16T07:34:01;211.82;;;89.63;;
30048;SDS011;16879;50.852;15.602;2023-02-16T07:36:27;208.35;;;87.80;;
30048;SDS011;16879;50.852;15.602;2023-02-16T07:38:56;190.90;;;83.97;;
30048;SDS011;16879;50.852;15.602;2023-02-16T07:41:22;195.70;;;85.80;;
30048;SDS011;16879;50.852;15.602;2023-02-16T07:43:49;233.63;;;101.38;;
30048;SDS011;16879;50.852;15.602;2023-02-16T07:46:46;235.13;;;103.40;;
30048;SDS011;16879;50.852;15.602;2023-02-16T07:49:12;252.48;;;114.97;;
30048;SDS011;16879;50.852;15.602;2023-02-16T07:51:38;290.52;;;121.20;;
30048;SDS011;16879;50.852;15.602;2023-02-16T07:54:06;286.77;;;123.40;;
30048;SDS011;16879;50.852;15.602;2023-02-16T07:56:44;280.70;;;125.63;;
30048;SDS011;16879;50.852;15.602;2023-02-16T07:59:11;286.90;;;135.10;;
30048;SDS011;16879;50.852;15.602;2023-02-16T08:01:40;256.23;;;123.97;;
30048;SDS011;16879;50.852;15.602;2023-02-16T08:04:07;224.13;;;103.72;;
30048;SDS011;16879;50.852;15.602;2023-02-16T08:06:33;218.35;;;98.25;;
30048;SDS011;16879;50.852;15.602;2023-02-16T08:09:03;222.23;;;101.75;;
30048;SDS011;16879;50.852;15.602;2023-02-16T08:11:32;241.75;;;112.30;;
30048;SDS011;16879;50.852;15.602;2023-02-16T08:14:01;217.45;;;104.32;;
30048;SDS011;16879;50.852;15.602;2023-02-16T08:19:38;232.23;;;107.78;;
30048;SDS011;16879;50.852;15.602;2023-02-16T08:22:27;233.25;;;106.78;;
30048;SDS011;16879;50.852;15.602;2023-02-16T08:25:14;243.77;;;110.63;;
30048;SDS011;16879;50.852;15.602;2023-02-16T08:27:53;249.23;;;116.22;;
30048;SDS011;16879;50.852;15.602;2023-02-16T08:30:28;260.55;;;123.32;;
30048;SDS011;16879;50.852;15.602;2023-02-16T08:33:26;271.33;;;130.98;;
30048;SDS011;16879;50.852;15.602;2023-02-16T08:35:53;252.52;;;118.63;;
30048;SDS011;16879;50.852;15.602;2023-02-16T08:38:36;280.40;;;125.43;;
30048;SDS011;16879;50.852;15.602;2023-02-16T08:41:07;213.20;;;100.53;;
30048;SDS011;16879;50.852;15.602;2023-02-16T08:43:50;193.45;;;88.05;;
30048;SDS011;16879;50.852;15.602;2023-02-16T08:46:17;176.63;;;82.32;;
30048;SDS011;16879;50.852;15.602;2023-02-16T08:48:43;162.35;;;79.72;;
30048;SDS011;16879;50.852;15.602;2023-02-16T08:51:16;146.48;;;70.25;;
30048;SDS011;16879;50.852;15.602;2023-02-16T08:56:09;109.35;;;51.15;;
30048;SDS011;16879;50.852;15.602;2023-02-16T08:58:38;124.50;;;59.13;;
30048;SDS011;16879;50.852;15.602;2023-02-16T09:01:05;114.47;;;57.10;;
30048;SDS011;16879;50.852;15.602;2023-02-16T09:03:51;113.43;;;56.10;;
30048;SDS011;16879;50.852;15.602;2023-02-16T09:06:30;127.00;;;63.58;;
30048;SDS011;16879;50.852;15.602;2023-02-16T09:09:07;117.78;;;55.33;;
30048;SDS011;16879;50.852;15.602;2023-02-16T09:11:55;124.75;;;62.53;;
30048;SDS011;16879;50.852;15.602;2023-02-16T09:14:22;116.80;;;60.85;;
30048;SDS011;16879;50.852;15.602;2023-02-16T09:16:48;121.97;;;61.38;;
30048;SDS011;16879;50.852;15.602;2023-02-16T09:19:15;134.30;;;61.58;;
30048;SDS011;16879;50.852;15.602;2023-02-16T09:21:42;132.02;;;62.28;;
30048;SDS011;16879;50.852;15.602;2023-02-16T09:24:09;126.65;;;61.58;;
30048;SDS011;16879;50.852;15.602;2023-02-16T09:26:36;107.53;;;55.03;;
30048;SDS011;16879;50.852;15.602;2023-02-16T09:29:03;104.30;;;51.17;;
30048;SDS011;16879;50.852;15.602;2023-02-16T09:31:35;95.22;;;48.90;;
30048;SDS011;16879;50.852;15.602;2023-02-16T09:34:14;92.78;;;46.60;;
30048;SDS011;16879;50.852;15.602;2023-02-16T09:36:41;90.88;;;45.80;;
30048;SDS011;16879;50.852;15.602;2023-02-16T09:39:07;90.57;;;44.60;;
30048;SDS011;16879;50.852;15.602;2023-02-16T09:46:33;86.70;;;41.25;;
30048;SDS011;16879;50.852;15.602;2023-02-16T09:49:01;96.00;;;46.65;;
30048;SDS011;16879;50.852;15.602;2023-02-16T09:51:35;91.35;;;43.95;;
30048;SDS011;16879;50.852;15.602;2023-02-16T09:54:04;101.22;;;49.08;;
30048;SDS011;16879;50.852;15.602;2023-02-16T09:56:45;92.60;;;46.85;;
30048;SDS011;16879;50.852;15.602;2023-02-16T10:04:43;91.57;;;46.50;;
30048;SDS011;16879;50.852;15.602;2023-02-16T10:09:36;93.88;;;47.22;;
30048;SDS011;16879;50.852;15.602;2023-02-16T10:12:16;87.88;;;43.80;;
30048;SDS011;16879;50.852;15.602;2023-02-16T10:15:04;78.22;;;37.50;;
30048;SDS011;16879;50.852;15.602;2023-02-16T10:20:04;55.60;;;27.02;;
30048;SDS011;16879;50.852;15.602;2023-02-16T10:22:41;65.97;;;31.10;;
30048;SDS011;16879;50.852;15.602;2023-02-16T10:25:25;57.17;;;28.38;;
30048;SDS011;16879;50.852;15.602;2023-02-16T10:28:21;49.63;;;27.10;;
30048;SDS011;16879;50.852;15.602;2023-02-16T10:31:02;52.42;;;29.02;;
30048;SDS011;16879;50.852;15.602;2023-02-16T10:33:36;58.78;;;32.42;;
30048;SDS011;16879;50.852;15.602;2023-02-16T10:36:15;68.10;;;34.30;;
30048;SDS011;16879;50.852;15.602;2023-02-16T10:42:12;80.28;;;41.70;;
30048;SDS011;16879;50.852;15.602;2023-02-16T10:44:47;74.43;;;37.05;;
30048;SDS011;16879;50.852;15.602;2023-02-16T10:47:34;78.80;;;39.20;;
30048;SDS011;16879;50.852;15.602;2023-02-16T10:50:35;72.53;;;37.30;;
30048;SDS011;16879;50.852;15.602;2023-02-16T10:53:16;69.00;;;36.80;;
30048;SDS011;16879;50.852;15.602;2023-02-16T10:55:57;70.63;;;37.85;;
30048;SDS011;16879;50.852;15.602;2023-02-16T10:58:34;63.40;;;35.47;;
30048;SDS011;16879;50.852;15.602;2023-02-16T11:01:15;73.23;;;40.87;;
30048;SDS011;16879;50.852;15.602;2023-02-16T11:04:28;73.03;;;39.10;;
30048;SDS011;16879;50.852;15.602;2023-02-16T11:07:07;84.65;;;39.35;;
30048;SDS011;16879;50.852;15.602;2023-02-16T11:10:18;69.18;;;40.45;;
30048;SDS011;16879;50.852;15.602;2023-02-16T11:12:53;64.13;;;35.33;;
30048;SDS011;16879;50.852;15.602;2023-02-16T11:15:23;76.93;;;40.28;;
30048;SDS011;16879;50.852;15.602;2023-02-16T11:17:52;75.80;;;42.75;;
30048;SDS011;16879;50.852;15.602;2023-02-16T11:20:34;70.07;;;38.70;;
30048;SDS011;16879;50.852;15.602;2023-02-16T11:23:25;77.28;;;39.42;;
30048;SDS011;16879;50.852;15.602;2023-02-16T11:26:05;76.20;;;41.78;;
30048;SDS011;16879;50.852;15.602;2023-02-16T11:36:32;58.55;;;31.65;;
30048;SDS011;16879;50.852;15.602;2023-02-16T11:39:04;62.05;;;34.03;;
30048;SDS011;16879;50.852;15.602;2023-02-16T11:41:32;74.78;;;39.67;;
30048;SDS011;16879;50.852;15.602;2023-02-16T11:44:00;82.22;;;40.42;;
30048;SDS011;16879;50.852;15.602;2023-02-16T11:46:27;68.45;;;37.42;;
30048;SDS011;16879;50.852;15.602;2023-02-16T11:48:54;73.70;;;40.70;;
30048;SDS011;16879;50.852;15.602;2023-02-16T11:51:32;72.85;;;41.35;;
30048;SDS011;16879;50.852;15.602;2023-02-16T11:54:01;70.07;;;38.80;;
30048;SDS011;16879;50.852;15.602;2023-02-16T11:56:29;70.03;;;37.22;;
30048;SDS011;16879;50.852;15.602;2023-02-16T12:01:37;66.05;;;35.72;;
30048;SDS011;16879;50.852;15.602;2023-02-16T12:06:59;53.83;;;32.45;;
30048;SDS011;16879;50.852;15.602;2023-02-16T12:09:37;57.17;;;32.60;;
30048;SDS011;16879;50.852;15.602;2023-02-16T12:12:16;58.15;;;32.72;;
30048;SDS011;16879;50.852;15.602;2023-02-16T12:20:01;41.75;;;25.00;;
30048;SDS011;16879;50.852;15.602;2023-02-16T12:22:46;51.47;;;28.10;;
30048;SDS011;16879;50.852;15.602;2023-02-16T12:27:51;41.88;;;26.52;;
30048;SDS011;16879;50.852;15.602;2023-02-16T12:36:01;38.80;;;23.50;;
30048;SDS011;16879;50.852;15.602;2023-02-16T12:38:54;39.22;;;22.35;;
30048;SDS011;16879;50.852;15.602;2023-02-16T12:44:17;45.65;;;22.77;;
30048;SDS011;16879;50.852;15.602;2023-02-16T12:46:47;38.50;;;23.02;;
30048;SDS011;16879;50.852;15.602;2023-02-16T12:49:20;38.30;;;22.73;;
30048;SDS011;16879;50.852;15.602;2023-02-16T12:51:56;41.75;;;22.27;;
30048;SDS011;16879;50.852;15.602;2023-02-16T12:54:47;36.80;;;23.40;;
30048;SDS011;16879;50.852;15.602;2023-02-16T12:57:19;39.75;;;23.27;;
30048;SDS011;16879;50.852;15.602;2023-02-16T12:59:56;33.97;;;20.67;;
30048;SDS011;16879;50.852;15.602;2023-02-16T13:02:31;37.78;;;22.75;;
30048;SDS011;16879;50.852;15.602;2023-02-16T13:10:16;49.72;;;24.65;;
30048;SDS011;16879;50.852;15.602;2023-02-16T13:13:02;39.63;;;23.85;;
30048;SDS011;16879;50.852;15.602;2023-02-16T13:15:41;41.28;;;24.85;;
30048;SDS011;16879;50.852;15.602;2023-02-16T13:18:25;47.78;;;26.73;;
30048;SDS011;16879;50.852;15.602;2023-02-16T13:21:01;46.83;;;25.33;;
30048;SDS011;16879;50.852;15.602;2023-02-16T13:26:15;34.95;;;19.73;;
30048;SDS011;16879;50.852;15.602;2023-02-16T13:31:26;20.48;;;12.00;;
30048;SDS011;16879;50.852;15.602;2023-02-16T13:45:00;25.02;;;10.18;;
30048;SDS011;16879;50.852;15.602;2023-02-16T13:47:31;19.77;;;10.00;;
30048;SDS011;16879;50.852;15.602;2023-02-16T13:50:00;19.17;;;10.35;;
30048;SDS011;16879;50.852;15.602;2023-02-16T13:55:22;19.33;;;10.38;;
30048;SDS011;16879;50.852;15.602;2023-02-16T14:00:51;27.10;;;11.60;;
30048;SDS011;16879;50.852;15.602;2023-02-16T14:05:47;20.13;;;11.98;;
30048;SDS011;16879;50.852;15.602;2023-02-16T14:08:22;20.05;;;11.45;;
30048;SDS011;16879;50.852;15.602;2023-02-16T14:13:28;23.52;;;11.88;;
30048;SDS011;16879;50.852;15.602;2023-02-16T14:15:58;19.77;;;11.48;;
30048;SDS011;16879;50.852;15.602;2023-02-16T14:18:31;22.63;;;12.68;;
30048;SDS011;16879;50.852;15.602;2023-02-16T14:21:15;24.00;;;13.23;;
30048;SDS011;16879;50.852;15.602;2023-02-16T14:24:00;27.00;;;12.23;;
30048;SDS011;16879;50.852;15.602;2023-02-16T14:26:27;23.23;;;12.15;;
30048;SDS011;16879;50.852;15.602;2023-02-16T14:28:58;18.30;;;10.93;;
30048;SDS011;16879;50.852;15.602;2023-02-16T14:31:26;17.13;;;10.07;;
30048;SDS011;16879;50.852;15.602;2023-02-16T14:34:02;16.17;;;8.77;;
30048;SDS011;16879;50.852;15.602;2023-02-16T14:36:38;13.60;;;6.97;;
30048;SDS011;16879;50.852;15.602;2023-02-16T14:39:40;15.55;;;7.97;;
30048;SDS011;16879;50.852;15.602;2023-02-16T14:42:24;15.88;;;7.20;;
30048;SDS011;16879;50.852;15.602;2023-02-16T14:45:01;16.77;;;7.90;;
30048;SDS011;16879;50.852;15.602;2023-02-16T14:56:21;12.63;;;6.57;;
30048;SDS011;16879;50.852;15.602;2023-02-16T14:59:15;12.82;;;7.93;;
30048;SDS011;16879;50.852;15.602;2023-02-16T15:04:49;9.93;;;6.60;;
30048;SDS011;16879;50.852;15.602;2023-02-16T15:07:15;17.40;;;10.63;;
30048;SDS011;16879;50.852;15.602;2023-02-16T15:09:42;16.35;;;10.43;;
30048;SDS011;16879;50.852;15.602;2023-02-16T15:12:12;24.95;;;11.50;;
30048;SDS011;16879;50.852;15.602;2023-02-16T15:14:57;20.13;;;11.25;;
30048;SDS011;16879;50.852;15.602;2023-02-16T15:17:29;25.15;;;11.63;;
30048;SDS011;16879;50.852;15.602;2023-02-16T15:20:06;14.85;;;9.85;;
30048;SDS011;16879;50.852;15.602;2023-02-16T15:23:17;20.73;;;11.43;;
30048;SDS011;16879;50.852;15.602;2023-02-16T15:25:51;26.98;;;11.80;;
30048;SDS011;16879;50.852;15.602;2023-02-16T15:28:19;21.55;;;14.93;;
30048;SDS011;16879;50.852;15.602;2023-02-16T15:30:51;56.55;;;33.42;;
30048;SDS011;16879;50.852;15.602;2023-02-16T15:36:06;51.70;;;30.33;;
30048;SDS011;16879;50.852;15.602;2023-02-16T15:38:37;44.53;;;28.00;;
30048;SDS011;16879;50.852;15.602;2023-02-16T15:41:08;48.97;;;33.30;;
30048;SDS011;16879;50.852;15.602;2023-02-16T15:43:42;98.60;;;67.22;;
30048;SDS011;16879;50.852;15.602;2023-02-16T15:46:21;66.07;;;44.47;;
30048;SDS011;16879;50.852;15.602;2023-02-16T15:48:48;57.97;;;39.72;;
30048;SDS011;16879;50.852;15.602;2023-02-16T15:51:23;65.80;;;39.50;;
30048;SDS011;16879;50.852;15.602;2023-02-16T15:53:54;39.95;;;25.48;;
30048;SDS011;16879;50.852;15.602;2023-02-16T16:01:39;37.55;;;19.23;;
30048;SDS011;16879;50.852;15.602;2023-02-16T16:04:11;51.10;;;24.65;;
30048;SDS011;16879;50.852;15.602;2023-02-16T16:06:43;43.45;;;22.75;;
30048;SDS011;16879;50.852;15.602;2023-02-16T16:09:13;49.35;;;23.52;;
30048;SDS011;16879;50.852;15.602;2023-02-16T16:11:58;73.63;;;32.00;;
30048;SDS011;16879;50.852;15.602;2023-02-16T16:14:26;80.93;;;33.40;;
30048;SDS011;16879;50.852;15.602;2023-02-16T16:16:53;74.82;;;34.05;;
30048;SDS011;16879;50.852;15.602;2023-02-16T16:19:30;60.42;;;29.02;;
30048;SDS011;16879;50.852;15.602;2023-02-16T16:25:00;62.22;;;36.10;;
30048;SDS011;16879;50.852;15.602;2023-02-16T16:27:28;49.63;;;26.75;;
30048;SDS011;16879;50.852;15.602;2023-02-16T16:32:57;31.67;;;18.42;;
30048;SDS011;16879;50.852;15.602;2023-02-16T16:35:40;28.55;;;14.77;;
30048;SDS011;16879;50.852;15.602;2023-02-16T16:38:22;42.53;;;24.83;;
30048;SDS011;16879;50.852;15.602;2023-02-16T16:41:01;35.85;;;21.85;;
30048;SDS011;16879;50.852;15.602;2023-02-16T16:43:31;35.28;;;20.00;;
30048;SDS011;16879;50.852;15.602;2023-02-16T16:48:35;26.83;;;16.65;;
30048;SDS011;16879;50.852;15.602;2023-02-16T16:51:09;30.23;;;17.23;;
30048;SDS011;16879;50.852;15.602;2023-02-16T16:56:09;36.40;;;20.38;;
30048;SDS011;16879;50.852;15.602;2023-02-16T16:58:35;67.03;;;31.83;;